createdAt,value
2024-03-19T04:46:28.000Z,101099.78
2024-03-19T04:48:56.086Z,101098.74
2024-03-19T04:51:29.201Z,101101.39
2024-03-19T04:53:56.813Z,101103.73
2024-03-19T04:56:25.777Z,101111.11
2024-03-19T04:58:53.605Z,101113.71
2024-03-19T05:01:21.155Z,101118.79
2024-03-19T05:03:51.161Z,101118.25
2024-03-19T05:06:18.821Z,101118.76
2024-03-19T05:08:48.664Z,101125.00
2024-03-19T05:11:16.264Z,101128.36
2024-03-19T05:13:43.925Z,101132.40
2024-03-19T05:16:12.852Z,101130.95
2024-03-19T05:18:40.411Z,101140.89
2024-03-19T05:21:08.120Z,101137.64
2024-03-19T05:23:36.968Z,101142.08
2024-03-19T05:26:08.149Z,101147.48
2024-03-19T05:28:36.959Z,101149.48
2024-03-19T05:31:22.450Z,101149.30
2024-03-19T05:33:55.867Z,101152.61
2024-03-19T05:36:27.019Z,101151.20
2024-03-19T05:38:54.703Z,101151.02
2024-03-19T05:41:24.497Z,101152.95
2024-03-19T05:43:54.128Z,101154.67
2024-03-19T05:46:25.638Z,101156.66
2024-03-19T05:48:53.432Z,101160.92
2024-03-19T05:51:23.651Z,101162.97
2024-03-19T05:53:51.235Z,101167.48
2024-03-19T05:56:19.116Z,101166.73
2024-03-19T05:58:47.965Z,101169.77
2024-03-19T06:01:15.582Z,101171.73
2024-03-19T06:03:43.236Z,101174.27
2024-03-19T06:06:11.507Z,101175.83
2024-03-19T06:08:40.344Z,101170.20
2024-03-19T06:11:10.198Z,101170.38
2024-03-19T06:13:37.956Z,101167.35
2024-03-19T06:16:06.349Z,101170.23
2024-03-19T06:18:34.847Z,101170.94
2024-03-19T06:21:02.464Z,101168.30
2024-03-19T06:23:32.704Z,101169.58
2024-03-19T06:26:00.244Z,101167.50
2024-03-19T06:28:27.961Z,101168.33
2024-03-19T06:30:57.349Z,101168.05
2024-03-19T06:33:24.903Z,101172.55
2024-03-19T06:35:54.933Z,101174.04
2024-03-19T06:38:22.643Z,101181.45
2024-03-19T06:40:50.423Z,101181.45
2024-03-19T06:43:19.348Z,101180.46
2024-03-19T06:45:48.142Z,101177.54
2024-03-19T06:48:17.184Z,101180.30
2024-03-19T06:50:45.228Z,101180.00
2024-03-19T06:53:16.665Z,101178.73
2024-03-19T06:55:44.361Z,101181.90
2024-03-19T06:58:14.225Z,101182.66
2024-03-19T07:00:41.884Z,101189.85
2024-03-19T07:03:14.272Z,101191.27
2024-03-19T07:05:48.204Z,101190.01
2024-03-19T07:08:21.683Z,101190.83
2024-03-19T07:10:51.709Z,101187.91
2024-03-19T07:13:19.916Z,101192.39
2024-03-19T07:15:53.767Z,101194.33
2024-03-19T07:18:21.583Z,101197.65
2024-03-19T07:20:52.719Z,101200.97
2024-03-19T07:23:20.563Z,101198.98
2024-03-19T07:25:49.493Z,101198.83
2024-03-19T07:28:17.331Z,101195.04
2024-03-19T07:30:47.330Z,101196.64
2024-03-19T07:33:15.423Z,101199.13
2024-03-19T07:35:46.364Z,101195.66
2024-03-19T07:38:16.860Z,101196.48
2024-03-19T07:40:54.002Z,101197.70
2024-03-19T07:43:24.724Z,101201.29
2024-03-19T07:45:58.050Z,101206.87
2024-03-19T07:48:27.249Z,101208.80
2024-03-19T07:50:57.577Z,101211.23
2024-03-19T07:53:28.437Z,101210.85
2024-03-19T07:55:56.448Z,101210.23
2024-03-19T07:58:25.440Z,101213.06
2024-03-19T08:00:53.237Z,101216.83
2024-03-19T08:03:22.358Z,101220.65
2024-03-19T08:06:02.369Z,101222.42
2024-03-19T08:08:32.474Z,101222.55
2024-03-19T08:11:02.908Z,101222.83
2024-03-19T08:13:32.336Z,101223.05
2024-03-19T08:16:00.731Z,101224.05
2024-03-19T08:18:29.908Z,101223.57
2024-03-19T08:20:57.634Z,101222.30
2024-03-19T08:23:25.300Z,101224.36
2024-03-19T08:25:55.495Z,101226.41
2024-03-19T08:28:25.058Z,101225.77
2024-03-19T08:30:54.058Z,101226.77
2024-03-19T08:33:22.845Z,101225.83
2024-03-19T08:35:56.960Z,101226.44
2024-03-19T08:38:29.696Z,101223.64
2024-03-19T08:40:58.327Z,101221.98
2024-03-19T08:43:29.001Z,101221.33
2024-03-19T08:45:59.902Z,101216.46
2024-03-19T08:48:29.107Z,101218.45
2024-03-19T08:50:58.648Z,101219.67
2024-03-19T08:53:28.064Z,101218.40
2024-03-19T08:55:57.260Z,101218.80
2024-03-19T08:58:26.379Z,101221.35
2024-03-19T09:00:54.156Z,101217.54
2024-03-19T09:03:21.823Z,101219.75
2024-03-19T09:05:58.001Z,101220.86
2024-03-19T09:08:28.376Z,101216.83
2024-03-19T09:10:56.666Z,101216.84
2024-03-19T09:13:25.639Z,101217.28
2024-03-19T09:15:53.675Z,101218.70
2024-03-19T09:18:25.410Z,101215.92
2024-03-19T09:20:57.951Z,101221.05
2024-03-19T09:23:27.184Z,101218.23
2024-03-19T09:26:07.787Z,101219.75
2024-03-19T09:28:36.156Z,101224.40
2024-03-19T09:31:05.857Z,101224.85
2024-03-19T09:33:34.434Z,101223.19
2024-03-19T09:36:03.581Z,101225.36
2024-03-19T09:38:31.555Z,101224.48
2024-03-19T09:41:04.359Z,101226.70
2024-03-19T09:43:36.358Z,101226.42
2024-03-19T09:46:11.566Z,101227.32
2024-03-19T09:48:47.481Z,101225.72
2024-03-19T09:51:23.309Z,101228.38
2024-03-19T09:53:54.469Z,101226.06
2024-03-19T09:56:25.841Z,101224.73
2024-03-19T09:58:57.078Z,101230.27
2024-03-19T10:01:26.439Z,101228.38
2024-03-19T10:03:55.422Z,101230.53
2024-03-19T10:06:24.456Z,101229.98
2024-03-19T10:08:52.307Z,101230.71
2024-03-19T10:11:24.671Z,101228.33
2024-03-19T10:13:53.118Z,101230.98
2024-03-19T10:16:23.127Z,101231.31
2024-03-19T10:18:52.713Z,101231.05
2024-03-19T10:21:24.126Z,101234.53
2024-03-19T10:23:52.651Z,101228.61
2024-03-19T10:26:23.019Z,101233.16
2024-03-19T10:28:54.857Z,101237.02
2024-03-19T10:31:24.611Z,101235.59
2024-03-19T10:34:02.917Z,101237.86
2024-03-19T10:36:35.808Z,101242.34
2024-03-19T10:39:09.013Z,101241.39
2024-03-19T10:41:38.116Z,101243.00
2024-03-19T10:44:13.443Z,101239.08
2024-03-19T10:46:43.493Z,101238.41
2024-03-19T10:49:24.890Z,101240.62
2024-03-19T10:52:09.998Z,101240.25
2024-03-19T10:54:44.585Z,101242.17
2024-03-19T10:57:18.999Z,101239.46
2024-03-19T10:59:48.820Z,101239.02
2024-03-19T11:02:21.280Z,101240.52
2024-03-19T11:04:58.280Z,101238.02
2024-03-19T11:07:28.447Z,101235.82
2024-03-19T11:09:57.038Z,101237.92
2024-03-19T11:12:25.963Z,101235.70
2024-03-19T11:14:58.152Z,101234.42
2024-03-19T11:17:30.494Z,101231.27
2024-03-19T11:19:58.914Z,101232.55
2024-03-19T11:22:27.927Z,101232.98
2024-03-19T11:24:57.196Z,101226.67
2024-03-19T11:27:34.470Z,101226.78
2024-03-19T11:30:13.447Z,101225.79
2024-03-19T11:32:42.598Z,101223.80
2024-03-19T11:35:27.231Z,101229.39
2024-03-19T11:37:55.546Z,101228.67
2024-03-19T11:40:25.819Z,101227.45
2024-03-19T11:42:55.101Z,101228.40
2024-03-19T11:45:23.261Z,101226.80
2024-03-19T11:47:53.312Z,101229.73
2024-03-19T11:50:21.428Z,101226.56
2024-03-19T11:52:49.808Z,101225.30
2024-03-19T11:55:22.118Z,101222.58
2024-03-19T11:57:52.249Z,101222.36
2024-03-19T12:00:22.280Z,101220.16
2024-03-19T12:02:51.278Z,101219.44
2024-03-19T12:05:22.933Z,101212.29
2024-03-19T12:07:52.934Z,101214.52
2024-03-19T12:10:24.329Z,101214.73
2024-03-19T12:12:53.705Z,101210.46
2024-03-19T12:15:25.139Z,101206.86
2024-03-19T12:17:54.967Z,101202.22
2024-03-19T12:20:24.043Z,101205.27
2024-03-19T12:22:54.031Z,101203.00
2024-03-19T12:25:25.148Z,101202.16
2024-03-19T12:27:52.963Z,101202.60
2024-03-19T12:30:23.101Z,101203.50
2024-03-19T12:33:12.006Z,101202.00
2024-03-19T12:35:41.566Z,101202.89
2024-03-19T12:38:12.812Z,101201.50
2024-03-19T12:40:41.952Z,101199.30
2024-03-19T12:43:19.573Z,101198.84
2024-03-19T12:45:48.445Z,101196.67
2024-03-19T12:48:17.005Z,101195.20
2024-03-19T12:50:47.058Z,101187.83
2024-03-19T12:53:15.569Z,101183.45
2024-03-19T12:55:47.682Z,101183.41
2024-03-19T12:58:15.511Z,101177.16
2024-03-19T13:00:44.634Z,101175.11
2024-03-19T13:03:12.313Z,101176.05
2024-03-19T13:05:40.009Z,101169.69
2024-03-19T13:08:09.253Z,101168.13
2024-03-19T13:10:37.513Z,101168.45
2024-03-19T13:13:07.850Z,101166.70
2024-03-19T13:15:36.130Z,101165.80
2024-03-19T13:18:06.491Z,101165.02
2024-03-19T13:20:34.841Z,101164.08
2024-03-19T13:23:08.563Z,101160.21
2024-03-19T13:25:37.909Z,101157.70
2024-03-19T13:28:08.620Z,101159.44
2024-03-19T13:30:36.331Z,101157.72
2024-03-19T13:33:06.650Z,101161.27
2024-03-19T13:35:34.579Z,101161.21
2024-03-19T13:38:04.590Z,101163.05
2024-03-19T13:40:34.166Z,101160.21
2024-03-19T13:43:03.360Z,101157.02
2024-03-19T13:45:31.078Z,101153.57
2024-03-19T13:48:00.708Z,101153.86
2024-03-19T13:50:32.859Z,101152.86
2024-03-19T13:53:04.059Z,101155.02
2024-03-19T13:55:39.256Z,101154.30
2024-03-19T13:58:15.585Z,101156.16
2024-03-19T14:00:48.936Z,101153.41
2024-03-19T14:03:23.935Z,101149.98
2024-03-19T14:06:03.293Z,101151.70
2024-03-19T14:08:36.597Z,101148.70
2024-03-19T14:11:06.106Z,101150.23
2024-03-19T14:13:35.210Z,101154.45
2024-03-19T14:16:03.108Z,101151.50
2024-03-19T14:18:31.080Z,101151.63
2024-03-19T14:21:00.089Z,101149.35
2024-03-19T14:23:27.965Z,101147.98
2024-03-19T14:25:55.910Z,101147.86
2024-03-19T14:28:25.062Z,101142.22
2024-03-19T14:30:56.705Z,101148.70
2024-03-19T14:33:26.350Z,101145.20
2024-03-19T14:35:54.276Z,101145.06
2024-03-19T14:38:25.298Z,101145.89
2024-03-19T14:40:54.056Z,101148.60
2024-03-19T14:43:23.977Z,101145.32
2024-03-19T14:45:52.022Z,101147.20
2024-03-19T14:48:22.707Z,101147.48
2024-03-19T14:50:50.957Z,101150.23
2024-03-19T14:53:22.469Z,101149.69
2024-03-19T14:55:50.489Z,101148.64
2024-03-19T14:58:20.800Z,101152.23
2024-03-19T15:00:52.165Z,101151.73
2024-03-19T15:03:28.303Z,101151.39
2024-03-19T15:05:58.818Z,101154.21
2024-03-19T15:08:28.853Z,101157.41
2024-03-19T15:11:02.824Z,101158.27
2024-03-19T15:13:32.093Z,101157.92
2024-03-19T15:16:07.313Z,101157.86
2024-03-19T15:18:39.208Z,101156.70
2024-03-19T15:21:18.676Z,101155.92
2024-03-19T15:24:00.861Z,101159.02
2024-03-19T15:26:37.758Z,101154.40
2024-03-19T15:29:10.557Z,101154.56
2024-03-19T15:31:41.428Z,101153.17
2024-03-19T15:34:10.506Z,101154.84
2024-03-19T15:36:39.063Z,101152.95
2024-03-19T15:39:09.312Z,101156.59
2024-03-19T15:41:37.587Z,101153.89
2024-03-19T15:44:07.646Z,101154.44
2024-03-19T15:46:35.621Z,101153.88
2024-03-19T15:49:05.805Z,101153.32
2024-03-19T15:51:33.672Z,101152.45
2024-03-19T15:54:02.277Z,101154.60
2024-03-19T15:56:31.896Z,101157.27
2024-03-19T15:59:02.006Z,101155.73
2024-03-19T16:01:34.984Z,101155.61
2024-03-19T16:04:08.390Z,101157.23
2024-03-19T16:06:36.884Z,101160.38
2024-03-19T16:09:10.976Z,101159.00
2024-03-19T16:11:47.613Z,101161.52
2024-03-19T16:14:18.719Z,101162.22
2024-03-19T16:16:48.299Z,101161.77
2024-03-19T16:19:17.072Z,101163.11
2024-03-19T16:21:50.362Z,101164.61
2024-03-19T16:24:19.013Z,101166.37
2024-03-19T16:26:48.798Z,101167.42
2024-03-19T16:29:17.061Z,101166.92
2024-03-19T16:31:48.490Z,101169.64
2024-03-19T16:34:22.188Z,101165.87
2024-03-19T16:36:52.311Z,101171.02
2024-03-19T16:39:21.270Z,101169.08
2024-03-19T16:41:51.464Z,101171.34
2024-03-19T16:44:20.101Z,101170.62
2024-03-19T16:46:53.752Z,101171.27
2024-03-19T16:49:28.598Z,101177.88
2024-03-19T16:51:57.204Z,101182.41
2024-03-19T16:54:26.883Z,101186.05
2024-03-19T16:56:57.626Z,101185.98
2024-03-19T16:59:28.220Z,101185.32
2024-03-19T17:01:57.390Z,101184.60
2024-03-19T17:04:28.786Z,101186.34
2024-03-19T17:06:57.552Z,101188.25
2024-03-19T17:09:27.814Z,101190.14
2024-03-19T17:11:55.591Z,101189.03
2024-03-19T17:14:25.826Z,101190.14
2024-03-19T17:16:53.655Z,101191.40
2024-03-19T17:19:21.550Z,101199.13
2024-03-19T17:21:52.567Z,101195.61
2024-03-19T17:24:21.397Z,101199.70
2024-03-19T17:26:50.317Z,101201.07
2024-03-19T17:29:18.938Z,101197.84
2024-03-19T17:31:49.202Z,101198.35
2024-03-19T17:34:19.749Z,101202.35
2024-03-19T17:36:49.694Z,101206.08
2024-03-19T17:39:18.112Z,101204.18
2024-03-19T17:41:47.315Z,101207.63
2024-03-19T17:44:15.673Z,101208.84
2024-03-19T17:46:46.021Z,101211.16
2024-03-19T17:49:17.835Z,101212.73
2024-03-19T17:51:46.486Z,101212.23
2024-03-19T17:54:15.101Z,101215.77
2024-03-19T17:56:51.276Z,101214.00
2024-03-19T17:59:21.422Z,101217.55
2024-03-19T18:01:50.461Z,101220.04
2024-03-19T18:04:19.800Z,101221.76
2024-03-19T18:06:47.638Z,101220.27
2024-03-19T18:09:18.822Z,101218.72
2024-03-19T18:11:48.021Z,101214.80
2024-03-19T18:14:17.120Z,101214.23
2024-03-19T18:16:50.211Z,101217.44
2024-03-19T18:19:27.725Z,101213.90
2024-03-19T18:21:56.974Z,101216.23
2024-03-19T18:24:28.523Z,101217.94
2024-03-19T18:26:57.216Z,101216.45
2024-03-19T18:29:26.656Z,101219.93
2024-03-19T18:31:56.228Z,101214.80
2024-03-19T18:34:29.691Z,101216.94
2024-03-19T18:36:58.960Z,101212.46
2024-03-19T18:39:28.625Z,101214.11
2024-03-19T18:44:53.123Z,101211.80
2024-03-19T18:47:20.988Z,101214.89
2024-03-19T18:49:49.587Z,101216.54
2024-03-19T18:52:19.103Z,101217.52
2024-03-19T18:54:46.949Z,101217.30
2024-03-19T18:57:18.789Z,101218.05
2024-03-19T18:59:46.883Z,101220.95
2024-03-19T19:02:16.098Z,101226.66
2024-03-19T19:04:44.091Z,101224.10
2024-03-19T19:07:11.837Z,101220.84
2024-03-19T19:09:41.010Z,101223.23
2024-03-19T19:12:09.390Z,101227.41
2024-03-19T19:14:39.407Z,101228.11
2024-03-19T19:17:08.003Z,101226.50
2024-03-19T19:19:38.112Z,101231.56
2024-03-19T19:22:06.514Z,101229.43
2024-03-19T19:24:38.070Z,101230.55
2024-03-19T19:27:06.321Z,101233.20
2024-03-19T19:29:35.314Z,101232.02
2024-03-19T19:32:03.284Z,101234.88
2024-03-19T19:34:32.417Z,101237.56
2024-03-19T19:37:02.524Z,101238.11
2024-03-19T19:39:32.470Z,101238.20
2024-03-19T19:42:02.687Z,101240.20
2024-03-19T19:44:33.239Z,101240.98
2024-03-19T19:47:04.360Z,101240.27
2024-03-19T19:49:35.259Z,101238.12
2024-03-19T19:52:04.822Z,101239.19
2024-03-19T19:54:32.543Z,101237.08
2024-03-19T19:57:01.129Z,101240.52
2024-03-19T19:59:29.093Z,101242.41
2024-03-19T20:01:59.309Z,101239.96
2024-03-19T20:04:27.173Z,101238.96
2024-03-19T20:06:57.079Z,101235.75
2024-03-19T20:09:24.682Z,101237.69
2024-03-19T20:11:52.310Z,101238.91
2024-03-19T20:14:20.580Z,101239.68
2024-03-19T20:16:48.656Z,101239.13
2024-03-19T20:19:17.542Z,101238.19
2024-03-19T20:21:46.948Z,101240.41
2024-03-19T20:24:16.272Z,101237.63
2024-03-19T20:26:45.338Z,101234.51
2024-03-19T20:29:14.642Z,101234.67
2024-03-19T20:31:43.842Z,101239.04
2024-03-19T20:34:12.469Z,101232.71
2024-03-19T20:36:42.640Z,101233.54
2024-03-19T20:39:10.921Z,101232.31
2024-03-19T20:41:42.415Z,101231.98
2024-03-19T20:44:11.983Z,101234.86
2024-03-19T20:46:41.792Z,101234.97
2024-03-19T20:49:09.495Z,101234.30
2024-03-19T20:51:39.370Z,101230.47
2024-03-19T20:54:07.447Z,101234.07
2024-03-19T20:56:37.884Z,101236.73
2024-03-19T20:59:09.023Z,101236.62
2024-03-19T21:01:38.121Z,101242.27
2024-03-19T21:04:05.949Z,101241.31
2024-03-19T21:06:33.549Z,101241.16
2024-03-19T21:09:03.150Z,101238.82
2024-03-19T21:11:31.030Z,101237.55
2024-03-19T21:14:00.008Z,101237.66
2024-03-19T21:16:29.772Z,101235.99
2024-03-19T21:18:58.916Z,101239.74
2024-03-19T21:21:26.791Z,101240.70
2024-03-19T21:23:57.618Z,101235.58
2024-03-19T21:26:25.385Z,101236.98
2024-03-19T21:28:54.386Z,101231.48
2024-03-19T21:31:23.779Z,101231.38
2024-03-19T21:33:52.675Z,101230.36
2024-03-19T21:36:21.457Z,101227.59
2024-03-19T21:38:51.681Z,101226.87
2024-03-19T21:41:19.347Z,101227.47
2024-03-19T21:43:49.462Z,101223.14
2024-03-19T21:46:17.127Z,101222.59
2024-03-19T21:48:45.112Z,101223.09
2024-03-19T21:51:14.045Z,101218.05
2024-03-19T21:53:42.057Z,101217.23
2024-03-19T21:56:09.719Z,101215.10
2024-03-19T21:58:38.610Z,101215.77
2024-03-19T22:01:07.808Z,101213.95
2024-03-19T22:03:39.776Z,101216.64
2024-03-19T22:06:07.538Z,101214.98
2024-03-19T22:08:36.534Z,101212.33
2024-03-19T22:11:04.703Z,101212.60
2024-03-19T22:13:32.364Z,101212.43
2024-03-19T22:16:01.359Z,101211.88
2024-03-19T22:18:29.128Z,101212.66
2024-03-19T22:20:56.901Z,101216.33
2024-03-19T22:23:25.795Z,101214.89
2024-03-19T22:25:53.546Z,101215.28
2024-03-19T22:28:21.208Z,101216.71
2024-03-19T22:30:50.203Z,101211.08
2024-03-19T22:33:17.991Z,101206.23
2024-03-19T22:35:45.737Z,101206.17
2024-03-19T22:38:14.818Z,101209.17
2024-03-19T22:40:43.106Z,101209.77
2024-03-19T22:43:13.030Z,101207.16
2024-03-19T22:45:43.852Z,101204.73
2024-03-19T22:48:12.954Z,101204.29
2024-03-19T22:50:44.401Z,101203.73
2024-03-19T22:53:13.600Z,101205.11
2024-03-19T22:55:41.265Z,101204.39
2024-03-19T22:58:08.928Z,101200.16
2024-03-19T23:00:39.764Z,101202.98
2024-03-19T23:03:07.529Z,101205.96
2024-03-19T23:05:36.522Z,101208.23
2024-03-19T23:08:04.595Z,101213.98
2024-03-19T23:10:34.505Z,101212.56
2024-03-19T23:13:02.178Z,101212.23
2024-03-19T23:15:29.940Z,101214.94
2024-03-19T23:17:59.072Z,101215.44
2024-03-19T23:20:27.003Z,101210.71
2024-03-19T23:22:55.075Z,101208.38
2024-03-19T23:25:24.176Z,101206.16
2024-03-19T23:27:53.268Z,101205.88
2024-03-19T23:30:23.632Z,101203.54
2024-03-19T23:32:51.454Z,101199.94
2024-03-19T23:35:20.756Z,101201.16
2024-03-19T23:37:48.626Z,101201.82
2024-03-19T23:40:20.381Z,101201.98
2024-03-19T23:42:48.058Z,101205.37
2024-03-19T23:45:17.336Z,101205.91
2024-03-19T23:47:44.894Z,101204.18
2024-03-19T23:50:13.386Z,101199.81
2024-03-19T23:52:41.455Z,101201.48
2024-03-19T23:55:09.943Z,101201.06
2024-03-19T23:57:39.954Z,101199.91
